createdAt,value
2019-01-18T00:02:40.573Z,22.30
2019-01-18T00:05:32.658Z,22.20
2019-01-18T00:08:24.565Z,22.20
2019-01-18T00:11:16.695Z,22.20
2019-01-18T00:14:08.956Z,22.20
2019-01-18T00:17:00.750Z,22.20
2019-01-18T00:19:52.942Z,22.20
2019-01-18T00:22:44.736Z,22.20
2019-01-18T00:25:36.972Z,22.20
2019-01-18T00:28:29.907Z,22.20
2019-01-18T00:31:22.433Z,22.20
2019-01-18T00:34:14.480Z,22.20
2019-01-18T00:37:06.890Z,22.20
2019-01-18T00:40:00.674Z,22.20
2019-01-18T00:42:53.105Z,22.20
2019-01-18T00:45:45.207Z,22.20
2019-01-18T00:48:37.168Z,22.20
2019-01-18T00:51:29.492Z,22.20
2019-01-18T00:54:21.615Z,22.20
2019-01-18T00:57:13.668Z,22.20
2019-01-18T01:00:07.969Z,22.20
2019-01-18T01:03:00.209Z,22.10
2019-01-18T01:05:52.396Z,22.10
2019-01-18T01:08:44.706Z,22.20
2019-01-18T01:11:36.678Z,22.10
2019-01-18T01:14:29.258Z,22.10
2019-01-18T01:17:21.302Z,22.10
2019-01-18T01:20:14.800Z,22.10
2019-01-18T01:23:07.153Z,22.10
2019-01-18T01:25:59.227Z,22.10
2019-01-18T01:28:52.331Z,22.10
2019-01-18T01:31:44.509Z,22.10
2019-01-18T01:34:36.998Z,22.10
2019-01-18T01:37:29.081Z,22.00
2019-01-18T01:40:22.395Z,21.90
2019-01-18T01:43:14.247Z,21.90
2019-01-18T01:46:06.544Z,22.00
2019-01-18T01:48:58.605Z,22.00
2019-01-18T01:51:50.898Z,22.00
2019-01-18T01:54:43.728Z,22.10
2019-01-18T01:57:37.121Z,22.00
2019-01-18T02:00:30.147Z,22.00
2019-01-18T02:03:22.099Z,22.00
2019-01-18T02:06:14.201Z,21.90
2019-01-18T02:09:07.691Z,22.00
2019-01-18T02:11:59.539Z,22.00
2019-01-18T02:14:51.854Z,22.00
2019-01-18T02:17:43.938Z,22.00
2019-01-18T02:20:35.866Z,22.00
2019-01-18T02:23:27.759Z,22.00
2019-01-18T02:26:20.362Z,22.00
2019-01-18T02:29:13.147Z,22.00
2019-01-18T02:32:05.664Z,22.00
2019-01-18T02:34:57.764Z,22.00
2019-01-18T02:37:50.664Z,22.10
2019-01-18T02:40:42.957Z,22.10
2019-01-18T02:43:36.065Z,22.10
2019-01-18T02:46:28.072Z,22.10
2019-01-18T02:49:20.840Z,22.10
2019-01-18T02:52:13.014Z,22.00
2019-01-18T02:55:05.293Z,22.00
2019-01-18T02:57:57.511Z,22.00
2019-01-18T03:00:49.722Z,22.00
2019-01-18T03:03:41.916Z,22.00
2019-01-18T03:06:34.395Z,22.00
2019-01-18T03:09:26.737Z,22.00
2019-01-18T03:12:21.372Z,22.10
2019-01-18T03:15:13.379Z,22.00
2019-01-18T03:18:08.177Z,22.00
2019-01-18T03:21:00.120Z,22.10
2019-01-18T03:23:52.277Z,22.10
2019-01-18T03:26:44.127Z,22.10
2019-01-18T03:29:38.196Z,22.10
2019-01-18T03:32:30.786Z,22.20
2019-01-18T03:35:23.436Z,22.20
2019-01-18T03:38:15.499Z,22.10
2019-01-18T03:41:07.452Z,22.10
2019-01-18T03:43:59.781Z,22.10
2019-01-18T03:46:51.969Z,22.10
2019-01-18T03:49:44.265Z,22.10
2019-01-18T03:52:36.102Z,22.10
2019-01-18T03:55:28.557Z,22.10
2019-01-18T03:58:20.932Z,22.20
2019-01-18T04:01:14.142Z,22.20
2019-01-18T04:04:06.029Z,22.20
2019-01-18T04:06:58.248Z,22.20
2019-01-18T04:09:50.419Z,22.20
2019-01-18T04:12:42.809Z,22.30
2019-01-18T04:15:35.130Z,22.30
2019-01-18T04:18:27.283Z,22.30
2019-01-18T04:21:19.666Z,22.30
2019-01-18T04:24:12.159Z,22.30
2019-01-18T04:27:04.448Z,22.40
2019-01-18T04:29:56.371Z,22.40
2019-01-18T04:32:48.629Z,22.40
2019-01-18T04:35:41.139Z,22.40
2019-01-18T04:38:33.390Z,22.30
2019-01-18T04:41:25.353Z,22.30
2019-01-18T04:44:18.599Z,22.30
2019-01-18T04:47:11.122Z,22.30
2019-01-18T04:50:03.560Z,22.30
2019-01-18T04:52:55.777Z,22.30
2019-01-18T04:55:47.982Z,22.30
2019-01-18T04:58:40.162Z,22.30
2019-01-18T05:01:32.593Z,22.30
2019-01-18T05:04:25.639Z,22.30
2019-01-18T05:07:17.817Z,22.30
2019-01-18T05:10:19.082Z,22.30
2019-01-18T05:13:11.452Z,22.30
2019-01-18T05:16:07.104Z,22.30
2019-01-18T05:18:59.188Z,22.30
2019-01-18T05:21:52.246Z,22.30
2019-01-18T05:24:51.327Z,22.30
2019-01-18T05:27:53.752Z,22.30
2019-01-18T05:34:19.492Z,22.30
2019-01-18T05:37:12.307Z,22.30
2019-01-18T05:40:06.277Z,22.30
2019-01-18T05:43:03.223Z,22.30
2019-01-18T05:45:56.130Z,22.30
2019-01-18T05:48:48.725Z,22.30
2019-01-18T05:51:41.807Z,22.40
2019-01-18T05:54:34.438Z,22.40
2019-01-18T05:57:28.975Z,22.50
2019-01-18T06:00:29.275Z,22.60
2019-01-18T06:03:21.865Z,22.60
2019-01-18T06:06:18.138Z,22.60
2019-01-18T06:09:12.105Z,22.60
2019-01-18T06:12:12.444Z,22.60
2019-01-18T06:15:22.282Z,22.60
2019-01-18T06:22:14.698Z,22.70
2019-01-18T06:25:13.165Z,22.80
2019-01-18T06:28:05.444Z,22.80
2019-01-18T06:31:01.899Z,22.90
2019-01-18T06:34:02.865Z,22.90
2019-01-18T06:36:55.579Z,22.90
2019-01-18T06:39:51.585Z,22.90
2019-01-18T06:42:48.196Z,22.90
2019-01-18T06:45:44.125Z,23.00
2019-01-18T06:48:40.540Z,23.00
2019-01-18T06:51:39.326Z,23.00
2019-01-18T06:54:33.226Z,23.00
2019-01-18T06:57:27.939Z,23.00
2019-01-18T07:00:25.284Z,23.00
2019-01-18T07:03:18.424Z,23.00
2019-01-18T07:06:11.299Z,23.00
2019-01-18T07:09:04.459Z,23.10
2019-01-18T07:11:57.529Z,23.10
2019-01-18T07:14:50.702Z,23.10
2019-01-18T07:17:44.708Z,23.10
2019-01-18T07:20:39.054Z,23.10
2019-01-18T07:23:32.332Z,23.10
2019-01-18T07:26:25.671Z,23.10
2019-01-18T07:29:18.548Z,23.10
2019-01-18T07:32:14.620Z,23.10
2019-01-18T07:35:14.861Z,23.10
2019-01-18T07:38:11.081Z,23.10
2019-01-18T07:41:07.561Z,23.20
2019-01-18T07:44:00.734Z,23.20
2019-01-18T07:46:54.517Z,23.20
2019-01-18T07:50:30.632Z,23.20
2019-01-18T07:52:58.295Z,23.20
2019-01-18T07:56:01.255Z,23.20
2019-01-18T07:58:53.922Z,23.30
2019-01-18T08:01:47.448Z,23.30
2019-01-18T08:05:06.370Z,23.30
2019-01-18T08:08:00.848Z,23.30
2019-01-18T08:10:58.039Z,23.30
2019-01-18T08:13:54.426Z,23.30
2019-01-18T08:16:46.734Z,23.20
2019-01-18T08:19:39.136Z,23.20
2019-01-18T08:22:33.200Z,23.20
2019-01-18T08:25:25.438Z,23.20
2019-01-18T08:28:18.073Z,23.30
2019-01-18T08:34:26.912Z,23.30
2019-01-18T08:37:19.294Z,23.20
2019-01-18T08:40:15.593Z,23.30
2019-01-18T08:43:08.976Z,23.30
2019-01-18T08:46:06.902Z,23.30
2019-01-18T08:49:01.238Z,23.20
2019-01-18T08:51:56.802Z,23.20
2019-01-18T08:54:48.079Z,23.20
2019-01-18T08:57:43.888Z,23.20
2019-01-18T09:00:36.768Z,23.30
2019-01-18T09:03:30.568Z,23.20
2019-01-18T09:06:23.557Z,23.30
2019-01-18T09:09:16.682Z,23.30
2019-01-18T09:12:09.234Z,23.20
2019-01-18T09:15:01.835Z,23.20
2019-01-18T09:17:54.733Z,23.20
2019-01-18T09:20:47.117Z,23.20
2019-01-18T09:23:39.799Z,23.20
2019-01-18T09:26:33.794Z,23.20
2019-01-18T09:29:34.524Z,23.20
2019-01-18T09:32:29.228Z,23.20
2019-01-18T09:35:26.949Z,23.30
2019-01-18T09:38:20.871Z,23.30
2019-01-18T09:41:18.087Z,23.30
2019-01-18T09:44:33.100Z,23.30
2019-01-18T09:47:27.043Z,23.30
2019-01-18T09:50:20.512Z,23.30
2019-01-18T09:53:13.677Z,23.30
2019-01-18T09:56:07.117Z,23.30
2019-01-18T09:58:59.781Z,23.30
2019-01-18T10:01:51.746Z,23.20
2019-01-18T10:04:45.658Z,23.20
2019-01-18T10:07:38.050Z,23.20
2019-01-18T10:10:30.557Z,23.20
2019-01-18T10:13:23.143Z,23.20
2019-01-18T10:16:16.198Z,23.20
2019-01-18T10:19:11.831Z,23.10
2019-01-18T10:22:04.263Z,23.10
2019-01-18T10:24:56.954Z,23.10
2019-01-18T10:27:50.664Z,23.10
2019-01-18T10:30:48.220Z,23.10
2019-01-18T10:33:45.508Z,23.10
2019-01-18T10:36:38.608Z,23.10
2019-01-18T10:39:32.383Z,23.10
2019-01-18T10:42:26.902Z,23.10
2019-01-18T10:45:28.668Z,23.10
2019-01-18T10:48:23.939Z,23.10
2019-01-18T10:51:16.193Z,23.10
2019-01-18T10:54:10.368Z,23.10
2019-01-18T10:57:04.116Z,23.10
2019-01-18T11:00:03.251Z,23.10
2019-01-18T11:02:57.384Z,23.10
2019-01-18T11:05:54.770Z,23.10
2019-01-18T11:08:48.436Z,23.10
2019-01-18T11:11:42.089Z,23.10
2019-01-18T11:14:35.196Z,23.10
2019-01-18T11:17:27.955Z,23.10
2019-01-18T11:20:23.064Z,23.10
2019-01-18T11:23:15.780Z,23.10
2019-01-18T11:26:09.464Z,23.10
2019-01-18T11:29:03.422Z,23.10
2019-01-18T11:32:00.411Z,23.10
2019-01-18T11:34:56.144Z,23.10
2019-01-18T11:37:52.756Z,23.10
2019-01-18T11:40:48.129Z,23.10
2019-01-18T11:43:39.096Z,23.10
2019-01-18T11:46:33.638Z,23.00
2019-01-18T11:49:25.979Z,23.10
2019-01-18T11:52:20.500Z,23.00
2019-01-18T11:55:16.863Z,23.00
2019-01-18T11:58:14.033Z,23.00
2019-01-18T12:01:04.686Z,23.00
2019-01-18T12:03:57.131Z,23.10
2019-01-18T12:06:49.793Z,23.00
2019-01-18T12:09:42.400Z,23.00
2019-01-18T12:12:36.072Z,23.00
2019-01-18T12:15:29.129Z,23.10
2019-01-18T12:18:22.352Z,23.00
2019-01-18T12:21:15.427Z,23.10
2019-01-18T12:24:08.188Z,23.00
2019-01-18T12:27:00.212Z,23.00
2019-01-18T12:29:52.454Z,23.00
2019-01-18T12:32:45.028Z,23.00
2019-01-18T12:35:37.305Z,23.10
2019-01-18T12:38:29.360Z,23.10
2019-01-18T12:41:21.676Z,23.00
2019-01-18T12:44:13.694Z,23.10
2019-01-18T12:47:06.508Z,23.10
2019-01-18T12:49:58.885Z,23.10
2019-01-18T12:52:51.350Z,23.10
2019-01-18T12:55:43.475Z,23.00
2019-01-18T12:58:36.142Z,23.00
2019-01-18T13:01:28.481Z,23.00
2019-01-18T13:04:21.613Z,23.00
2019-01-18T13:07:14.789Z,23.00
2019-01-18T13:10:11.915Z,23.00
2019-01-18T13:13:02.236Z,23.00
2019-01-18T13:16:24.812Z,23.00
2019-01-18T13:19:22.360Z,23.00
2019-01-18T13:22:15.074Z,23.00
2019-01-18T13:25:17.295Z,23.00
2019-01-18T13:28:09.728Z,23.00
2019-01-18T13:31:03.929Z,23.00
2019-01-18T13:33:56.926Z,23.00
2019-01-18T13:36:49.801Z,23.00
2019-01-18T13:39:43.532Z,23.00
2019-01-18T13:42:36.810Z,23.00
2019-01-18T13:45:30.164Z,23.00
2019-01-18T13:48:22.595Z,23.00
2019-01-18T13:51:16.399Z,23.00
2019-01-18T13:54:09.230Z,23.00
2019-01-18T13:57:02.216Z,23.00
2019-01-18T13:59:55.324Z,23.00
2019-01-18T14:02:48.769Z,23.00
2019-01-18T14:05:42.052Z,23.00
2019-01-18T14:08:35.131Z,23.00
2019-01-18T14:11:28.207Z,23.00
2019-01-18T14:14:21.713Z,23.00
2019-01-18T14:17:14.000Z,23.00
2019-01-18T14:20:06.909Z,23.00
2019-01-18T14:22:59.828Z,23.00
2019-01-18T14:25:52.900Z,23.00
2019-01-18T14:28:45.745Z,23.00
2019-01-18T14:31:43.609Z,23.00
2019-01-18T14:34:36.234Z,23.00
2019-01-18T14:37:28.997Z,23.00
2019-01-18T14:40:22.020Z,22.90
2019-01-18T14:43:14.300Z,23.00
2019-01-18T14:46:06.879Z,23.00
2019-01-18T14:48:59.032Z,22.90
2019-01-18T14:51:52.117Z,22.90
2019-01-18T14:54:45.423Z,22.90
2019-01-18T14:57:38.109Z,23.00
2019-01-18T15:00:33.515Z,22.90
2019-01-18T15:03:25.919Z,22.90
2019-01-18T15:06:18.127Z,22.90
2019-01-18T15:09:11.734Z,22.90
2019-01-18T15:12:03.855Z,22.90
2019-01-18T15:14:56.111Z,22.90
2019-01-18T15:17:49.434Z,22.90
2019-01-18T15:20:42.167Z,22.90
2019-01-18T15:23:34.308Z,22.90
2019-01-18T15:26:26.747Z,22.90
2019-01-18T15:29:19.199Z,22.80
2019-01-18T15:32:11.435Z,22.80
2019-01-18T15:35:03.609Z,22.90
2019-01-18T15:37:56.608Z,22.80
2019-01-18T15:40:50.096Z,22.80
2019-01-18T15:43:42.559Z,22.80
2019-01-18T15:46:34.580Z,22.80
2019-01-18T15:49:26.794Z,22.80
2019-01-18T15:52:20.118Z,22.80
2019-01-18T15:55:13.509Z,22.80
2019-01-18T15:58:06.973Z,22.80
2019-01-18T16:00:59.700Z,22.80
2019-01-18T16:03:51.849Z,22.80
2019-01-18T16:06:44.395Z,22.80
2019-01-18T16:09:37.030Z,22.80
2019-01-18T16:12:29.023Z,22.80
2019-01-18T16:15:22.085Z,22.80
2019-01-18T16:18:15.594Z,22.80
2019-01-18T16:21:08.264Z,22.80
2019-01-18T16:24:00.858Z,22.80
2019-01-18T16:26:53.787Z,22.80
2019-01-18T16:29:46.711Z,22.80
2019-01-18T16:32:39.722Z,22.80
2019-01-18T16:35:32.539Z,22.80
2019-01-18T16:38:25.120Z,22.80
2019-01-18T16:41:17.475Z,22.80
2019-01-18T16:44:09.995Z,22.80
2019-01-18T16:47:02.662Z,22.70
2019-01-18T16:49:55.339Z,22.70
2019-01-18T16:52:47.779Z,22.80
2019-01-18T16:55:40.074Z,22.80
2019-01-18T16:58:32.270Z,22.80
2019-01-18T17:01:24.767Z,22.80
2019-01-18T17:04:16.856Z,22.80
2019-01-18T17:07:08.827Z,22.80
2019-01-18T17:10:01.249Z,22.80
2019-01-18T17:12:54.526Z,22.80
2019-01-18T17:15:46.886Z,22.80
2019-01-18T17:18:39.906Z,22.80
2019-01-18T17:21:31.801Z,22.80
2019-01-18T17:24:23.903Z,22.80
2019-01-18T17:27:15.957Z,22.80
2019-01-18T17:30:08.889Z,22.80
2019-01-18T17:33:01.098Z,22.80
2019-01-18T17:35:58.423Z,22.80
2019-01-18T17:39:07.749Z,22.80
2019-01-18T17:42:18.052Z,22.80
2019-01-18T17:45:44.329Z,22.80
2019-01-18T17:48:46.777Z,22.80
2019-01-18T17:51:50.171Z,22.80
2019-01-18T17:54:50.480Z,22.80
2019-01-18T17:58:04.611Z,22.90
2019-01-18T18:01:27.039Z,22.80
2019-01-18T18:04:49.268Z,22.80
2019-01-18T18:07:59.347Z,22.80
2019-01-18T18:11:24.230Z,22.80
2019-01-18T18:14:37.639Z,22.80
2019-01-18T18:17:41.318Z,22.80
2019-01-18T18:20:50.021Z,22.80
2019-01-18T18:24:02.806Z,22.80
2019-01-18T18:27:18.200Z,22.80
2019-01-18T18:30:24.681Z,22.80
2019-01-18T18:33:32.821Z,22.80
2019-01-18T18:36:42.686Z,22.80
2019-01-18T18:39:58.636Z,22.80
2019-01-18T18:43:14.605Z,22.80
2019-01-18T18:46:24.892Z,22.80
2019-01-18T18:49:44.494Z,22.80
2019-01-18T18:52:54.774Z,22.80
2019-01-18T18:56:05.309Z,22.80
2019-01-18T18:59:05.522Z,22.80
2019-01-18T19:02:04.500Z,22.80
2019-01-18T19:05:05.877Z,22.80
2019-01-18T19:08:34.120Z,22.80
2019-01-18T19:11:33.472Z,22.80
2019-01-18T19:14:44.551Z,22.80
2019-01-18T19:17:49.578Z,22.80
2019-01-18T19:20:53.166Z,22.80
2019-01-18T19:24:12.667Z,22.80
2019-01-18T19:27:18.076Z,22.80
2019-01-18T19:30:19.622Z,22.80
2019-01-18T19:33:29.687Z,22.80
2019-01-18T19:36:43.369Z,22.80
2019-01-18T19:39:53.053Z,22.80
2019-01-18T19:43:02.884Z,22.80
2019-01-18T19:46:02.654Z,22.80
2019-01-18T19:49:12.319Z,22.80
2019-01-18T19:52:25.586Z,22.70
2019-01-18T19:55:47.687Z,22.70
2019-01-18T19:58:56.602Z,22.70
2019-01-18T20:01:56.180Z,22.70
2019-01-18T20:05:21.214Z,22.80
2019-01-18T20:08:31.461Z,22.70
2019-01-18T20:11:42.440Z,22.70
2019-01-18T20:14:55.525Z,22.70
2019-01-18T20:18:18.128Z,22.70
2019-01-18T20:21:36.138Z,22.70
2019-01-18T20:24:46.276Z,22.70
2019-01-18T20:28:05.576Z,22.70
2019-01-18T20:31:04.771Z,22.70
2019-01-18T20:34:18.399Z,22.70
2019-01-18T20:37:35.786Z,22.70
2019-01-18T20:40:37.161Z,22.80
2019-01-18T20:43:43.981Z,22.70
2019-01-18T20:46:52.235Z,22.70
2019-01-18T20:50:00.683Z,22.70
2019-01-18T20:53:17.423Z,22.70
2019-01-18T20:56:30.251Z,22.70
2019-01-18T20:59:40.070Z,22.70
2019-01-18T21:02:48.707Z,22.70
2019-01-18T21:05:55.899Z,22.70
2019-01-18T21:08:55.054Z,22.60
2019-01-18T21:11:58.674Z,22.60
2019-01-18T21:15:07.314Z,22.60
2019-01-18T21:18:18.207Z,22.60
2019-01-18T21:21:16.265Z,22.60
2019-01-18T21:24:20.505Z,22.60
2019-01-18T21:27:42.812Z,22.60
2019-01-18T21:31:05.426Z,22.60
2019-01-18T21:34:16.556Z,22.60
2019-01-18T21:37:29.755Z,22.60
2019-01-18T21:40:44.593Z,22.60
2019-01-18T21:44:10.165Z,22.60
2019-01-18T21:47:11.290Z,22.60
2019-01-18T21:50:12.240Z,22.60
2019-01-18T21:53:35.263Z,22.60
2019-01-18T21:56:51.347Z,22.60
2019-01-18T22:00:01.359Z,22.60
2019-01-18T22:03:12.287Z,22.60
2019-01-18T22:06:27.951Z,22.60
2019-01-18T22:09:31.915Z,22.60
2019-01-18T22:12:51.875Z,22.60
2019-01-18T22:16:10.466Z,22.60
2019-01-18T22:19:19.041Z,22.60
2019-01-18T22:22:29.459Z,22.60
2019-01-18T22:25:45.065Z,22.60
2019-01-18T22:28:40.554Z,22.60
2019-01-18T22:31:39.622Z,22.60
2019-01-18T22:34:48.118Z,22.50
2019-01-18T22:37:58.133Z,22.60
2019-01-18T22:41:08.026Z,22.50
2019-01-18T22:44:12.987Z,22.60
2019-01-18T22:47:14.229Z,22.60
2019-01-18T22:50:29.851Z,22.60
2019-01-18T22:53:39.106Z,22.60
2019-01-18T22:57:02.191Z,22.60
2019-01-18T23:00:40.691Z,22.50
2019-01-18T23:03:43.110Z,22.50
2019-01-18T23:06:47.243Z,22.50
2019-01-18T23:10:13.013Z,22.50
2019-01-18T23:13:23.143Z,22.50
2019-01-18T23:16:36.121Z,22.50
2019-01-18T23:19:31.863Z,22.50
2019-01-18T23:22:36.653Z,22.50
2019-01-18T23:25:35.972Z,22.50
2019-01-18T23:28:41.639Z,22.50
2019-01-18T23:31:57.646Z,22.40
2019-01-18T23:35:03.114Z,22.40
2019-01-18T23:38:08.257Z,22.40
2019-01-18T23:41:11.418Z,22.40
2019-01-18T23:44:31.095Z,22.40
2019-01-18T23:47:27.945Z,22.40
2019-01-18T23:50:40.990Z,22.40
2019-01-18T23:53:49.728Z,22.40
2019-01-18T23:56:49.757Z,22.40
